createdAt,value
2018-06-21T00:00:16.980Z,86.94
2018-06-21T00:01:26.992Z,86.52
2018-06-21T00:02:36.463Z,86.76
2018-06-21T00:03:46.471Z,86.61
2018-06-21T00:04:56.472Z,86.71
2018-06-21T00:06:05.946Z,86.47
2018-06-21T00:07:15.955Z,86.28
2018-06-21T00:08:25.439Z,86.18
2018-06-21T00:09:35.172Z,85.66
2018-06-21T00:10:45.182Z,86.05
2018-06-21T00:11:54.707Z,85.33
2018-06-21T00:13:04.200Z,84.81
2018-06-21T00:14:13.667Z,84.24
2018-06-21T00:15:23.424Z,84.38
2018-06-21T00:16:33.164Z,83.9
2018-06-21T00:17:42.907Z,83.42
2018-06-21T00:18:52.927Z,83.14
2018-06-21T00:20:02.666Z,83.33
2018-06-21T00:21:12.411Z,83.52
2018-06-21T00:22:22.147Z,82
2018-06-21T00:23:31.611Z,81.9
2018-06-21T00:24:41.355Z,81.71
2018-06-21T00:25:51.358Z,81.62
2018-06-21T00:27:01.362Z,82.28
2018-06-21T00:28:10.855Z,81.81
2018-06-21T00:29:21.002Z,81.9
2018-06-21T00:30:30.897Z,81.58
2018-06-21T00:31:40.642Z,81.58
2018-06-21T00:32:49.847Z,82.05
2018-06-21T00:33:59.853Z,81.38
2018-06-21T00:35:09.588Z,81.77
2018-06-21T00:36:18.790Z,82.24
2018-06-21T00:37:28.805Z,82.53
2018-06-21T00:38:38.807Z,82.15
2018-06-21T00:39:48.812Z,82.34
2018-06-21T00:40:58.284Z,82.62
2018-06-21T00:42:08.291Z,82.24
2018-06-21T00:43:18.028Z,82.43
2018-06-21T00:44:28.096Z,81.86
2018-06-21T00:45:37.569Z,81.77
2018-06-21T00:46:47.039Z,81.67
2018-06-21T00:47:57.049Z,81.96
2018-06-21T00:49:06.796Z,82.24
2018-06-21T00:50:15.998Z,81.96
2018-06-21T00:51:26.014Z,82.68
2018-06-21T00:52:35.482Z,82.81
2018-06-21T00:53:45.227Z,83
2018-06-21T00:54:54.696Z,83.19
2018-06-21T00:56:04.444Z,83.39
2018-06-21T00:57:14.445Z,83.62
2018-06-21T00:58:23.656Z,84.05
2018-06-21T00:59:33.410Z,84.48
2018-06-21T01:00:42.892Z,84.39
2018-06-21T01:01:52.892Z,84.39
2018-06-21T01:03:02.631Z,84.77
2018-06-21T01:04:12.632Z,85.05
2018-06-21T01:05:22.374Z,84.95
2018-06-21T01:06:32.375Z,85.15
2018-06-21T01:07:42.381Z,84.67
2018-06-21T01:08:51.848Z,84.67
2018-06-21T01:10:01.847Z,84.86
2018-06-21T01:11:11.852Z,84.39
2018-06-21T01:12:21.590Z,85.53
2018-06-21T01:13:31.588Z,84.77
2018-06-21T01:14:41.059Z,84.67
2018-06-21T01:15:50.523Z,85.34
2018-06-21T01:17:00.539Z,85.62
2018-06-21T01:18:09.786Z,85.05
2018-06-21T01:19:19.788Z,85.72
2018-06-21T01:20:29.522Z,84.95
2018-06-21T01:21:39.525Z,84.95
2018-06-21T01:22:49.522Z,85.05
2018-06-21T01:23:59.255Z,85.05
2018-06-21T01:25:09.255Z,84.86
2018-06-21T01:26:19.324Z,85.24
2018-06-21T01:27:29.330Z,84.95
2018-06-21T01:28:39.340Z,84.95
2018-06-21T01:29:49.339Z,84.1
2018-06-21T01:30:59.070Z,83.82
2018-06-21T01:32:09.075Z,84.1
2018-06-21T01:33:18.806Z,84.2
2018-06-21T01:34:28.537Z,84.01
2018-06-21T01:35:38.273Z,84.48
2018-06-21T01:36:48.283Z,84.86
2018-06-21T01:37:58.021Z,84.29
2018-06-21T01:39:07.487Z,84.1
2018-06-21T01:40:17.219Z,84.2
2018-06-21T01:41:26.685Z,83.97
2018-06-21T01:42:36.688Z,84.67
2018-06-21T01:43:46.707Z,85.34
2018-06-21T01:44:56.719Z,84.86
2018-06-21T01:46:06.196Z,85.39
2018-06-21T01:47:15.938Z,83.82
2018-06-21T01:48:25.939Z,83.97
2018-06-21T01:49:35.676Z,83.91
2018-06-21T01:50:45.407Z,84.48
2018-06-21T01:51:55.144Z,84.1
2018-06-21T01:53:04.075Z,84.95
2018-06-21T01:54:13.544Z,84.72
2018-06-21T01:55:23.546Z,84.77
2018-06-21T01:56:33.289Z,84.72
2018-06-21T01:57:43.024Z,85.15
2018-06-21T01:58:53.022Z,84.77
2018-06-21T02:00:02.765Z,84.82
2018-06-21T02:01:12.240Z,84.72
2018-06-21T02:02:21.978Z,84.77
2018-06-21T02:03:31.980Z,85.53
2018-06-21T02:04:41.983Z,85.43
2018-06-21T02:05:51.716Z,85.43
2018-06-21T02:07:01.720Z,85.01
2018-06-21T02:08:11.857Z,84.48
2018-06-21T02:09:21.863Z,84.29
2018-06-21T02:10:31.861Z,84.67
2018-06-21T02:11:41.329Z,84.2
2018-06-21T02:12:51.340Z,84.29
2018-06-21T02:14:01.345Z,85.05
2018-06-21T02:15:11.084Z,84.58
2018-06-21T02:16:20.819Z,84.39
2018-06-21T02:17:30.825Z,83.91
2018-06-21T02:18:40.292Z,84.01
2018-06-21T02:19:50.295Z,84.2
2018-06-21T02:20:59.765Z,83.53
2018-06-21T02:22:09.499Z,83.53
2018-06-21T02:23:18.969Z,84.01
2018-06-21T02:24:28.970Z,84.01
2018-06-21T02:25:38.969Z,84.1
2018-06-21T02:26:48.971Z,83.34
2018-06-21T02:27:58.706Z,84.01
2018-06-21T02:29:08.447Z,84.33
2018-06-21T02:30:18.186Z,85.47
2018-06-21T02:31:27.951Z,85.34
2018-06-21T02:32:37.156Z,85.91
2018-06-21T02:33:47.158Z,85.57
2018-06-21T02:34:57.160Z,85.76
2018-06-21T02:36:06.640Z,86.29
2018-06-21T02:37:16.657Z,85.72
2018-06-21T02:38:26.672Z,85.28
2018-06-21T02:39:36.157Z,85.95
2018-06-21T02:40:46.158Z,87.38
2018-06-21T02:41:56.180Z,86.8
2018-06-21T02:43:06.236Z,85.95
2018-06-21T02:44:16.242Z,86.8
2018-06-21T02:45:25.993Z,87.76
2018-06-21T02:46:36.030Z,86.8
2018-06-21T02:47:45.784Z,86.9
2018-06-21T02:48:57.808Z,86.71
2018-06-21T02:50:07.558Z,86.9
2018-06-21T02:51:17.564Z,87.66
2018-06-21T02:52:27.302Z,89.47
2018-06-21T02:53:36.772Z,90.61
2018-06-21T02:54:46.776Z,91.85
2018-06-21T02:55:56.779Z,92.13
2018-06-21T02:57:06.250Z,91.85
2018-06-21T02:58:16.252Z,91.28
2018-06-21T02:59:26.265Z,92.13
2018-06-21T03:03:35.489Z,90.89
2018-06-21T03:04:44.959Z,91.28
2018-06-21T03:05:54.435Z,90.61
2018-06-21T03:07:04.178Z,90.8
2018-06-21T03:08:13.962Z,90.52
2018-06-21T03:09:25.981Z,91.28
2018-06-21T03:10:35.735Z,90.8
2018-06-21T03:11:45.750Z,90.8
2018-06-21T03:12:55.490Z,91.08
2018-06-21T03:14:05.243Z,90.42
2018-06-21T03:15:15.264Z,90.61
2018-06-21T03:16:25.271Z,91.66
2018-06-21T03:17:34.743Z,92.8
2018-06-21T03:18:44.741Z,93.84
2018-06-21T03:19:54.761Z,94.79
2018-06-21T03:21:04.236Z,95.46
2018-06-21T03:22:14.265Z,94.7
2018-06-21T03:23:24.272Z,96.03
2018-06-21T03:24:34.279Z,96.98
2018-06-21T03:25:44.286Z,96.98
2018-06-21T03:26:54.287Z,97.27
2018-06-21T03:28:04.024Z,97.64
2018-06-21T03:29:14.043Z,97.45
2018-06-21T03:30:23.514Z,97.64
2018-06-21T03:31:33.540Z,97.83
2018-06-21T03:32:43.027Z,98.5
2018-06-21T03:33:53.028Z,99.99
2018-06-21T03:35:03.034Z,99.99
2018-06-21T03:36:13.045Z,99.99
2018-06-21T03:37:23.058Z,99.99
2018-06-21T03:38:32.791Z,99.99
2018-06-21T03:39:42.264Z,99.99
2018-06-21T03:40:52.277Z,99.99
2018-06-21T03:42:02.025Z,99.99
2018-06-21T03:43:12.037Z,99.99
2018-06-21T03:44:22.047Z,99.99
2018-06-21T03:45:31.519Z,99.99
2018-06-21T03:46:40.992Z,99.99
2018-06-21T03:47:50.999Z,99.99
2018-06-21T03:49:00.738Z,99.99
2018-06-21T03:50:10.741Z,99.99
2018-06-21T03:51:20.745Z,99.99
2018-06-21T03:52:30.749Z,99.99
2018-06-21T03:53:40.760Z,99.99
2018-06-21T03:54:50.768Z,99.93
2018-06-21T03:56:00.780Z,99.84
2018-06-21T03:57:10.522Z,99.74
2018-06-21T03:58:20.529Z,99.07
2018-06-21T03:59:30.263Z,98.79
2018-06-21T04:00:39.731Z,98.88
2018-06-21T04:01:49.732Z,99.93
2018-06-21T04:02:59.761Z,99.99
2018-06-21T04:04:09.927Z,99.99
2018-06-21T04:05:19.148Z,99.99
2018-06-21T04:06:28.759Z,99.99
2018-06-21T04:07:37.982Z,99.99
2018-06-21T04:08:47.724Z,99.99
2018-06-21T04:09:57.460Z,99.74
2018-06-21T04:11:06.674Z,97.55
2018-06-21T04:12:16.680Z,97.64
2018-06-21T04:13:26.688Z,96.41
2018-06-21T04:14:36.429Z,96.26
2018-06-21T04:15:46.431Z,97.13
2018-06-21T04:16:56.443Z,96.08
2018-06-21T04:18:05.912Z,95.98
2018-06-21T04:19:15.922Z,96.46
2018-06-21T04:20:25.664Z,96.26
2018-06-21T04:21:35.681Z,95.12
2018-06-21T04:22:45.421Z,95.41
2018-06-21T04:23:54.898Z,95.32
2018-06-21T04:25:04.375Z,94.84
2018-06-21T04:26:13.905Z,95.22
2018-06-21T04:27:23.647Z,93.6
2018-06-21T04:28:33.689Z,92.94
2018-06-21T04:29:43.696Z,92.56
2018-06-21T04:30:53.697Z,93.7
2018-06-21T04:32:03.696Z,92.75
2018-06-21T04:33:13.707Z,92.56
2018-06-21T04:34:23.708Z,91.7
2018-06-21T04:35:33.714Z,91.84
2018-06-21T04:36:43.451Z,90.84
2018-06-21T04:37:53.579Z,90.47
2018-06-21T04:39:03.931Z,91.37
2018-06-21T04:40:13.138Z,90.7
2018-06-21T04:41:22.882Z,90.89
2018-06-21T04:42:32.896Z,91.37
2018-06-21T04:43:42.913Z,90.7
2018-06-21T04:44:52.653Z,88.32
2018-06-21T04:46:02.402Z,89.08
2018-06-21T04:47:12.196Z,88.99
2018-06-21T04:48:22.200Z,90.03
2018-06-21T04:49:31.939Z,89.56
2018-06-21T04:50:41.684Z,89.27
2018-06-21T04:51:51.702Z,88.99
2018-06-21T04:53:01.193Z,88.51
2018-06-21T04:54:10.664Z,87.85
2018-06-21T04:55:20.409Z,88.51
2018-06-21T04:56:30.412Z,88.23
2018-06-21T04:57:40.423Z,86.99
2018-06-21T04:58:50.164Z,86.7
2018-06-21T04:59:59.974Z,87.75
2018-06-21T05:01:09.481Z,87.79
2018-06-21T05:02:18.958Z,86.75
2018-06-21T05:03:28.701Z,86.84
2018-06-21T05:04:38.757Z,86.65
2018-06-21T05:05:48.496Z,85.89
2018-06-21T05:06:57.704Z,85.41
2018-06-21T05:08:07.713Z,85.7
2018-06-21T05:09:17.726Z,85.8
2018-06-21T05:10:27.467Z,86.65
2018-06-21T05:11:37.476Z,85.8
2018-06-21T05:12:47.487Z,85.32
2018-06-21T05:13:56.962Z,84.41
2018-06-21T05:15:06.429Z,83.65
2018-06-21T05:16:16.441Z,82.6
2018-06-21T05:17:26.444Z,82.89
2018-06-21T05:18:36.495Z,82.21
2018-06-21T05:19:46.499Z,82.12
2018-06-21T05:20:56.527Z,82.31
2018-06-21T05:22:06.601Z,82.31
2018-06-21T05:23:16.604Z,81.55
2018-06-21T05:24:26.347Z,80.73
2018-06-21T05:25:36.093Z,80.54
2018-06-21T05:26:46.100Z,80.83
2018-06-21T05:27:56.107Z,79.78
2018-06-21T05:29:05.853Z,81.12
2018-06-21T05:30:15.638Z,81.4
2018-06-21T05:31:25.657Z,81.02
2018-06-21T05:32:35.155Z,80.54
2018-06-21T05:33:44.900Z,80.69
2018-06-21T05:34:54.638Z,81.65
2018-06-21T05:36:04.383Z,81.36
2018-06-21T05:37:14.126Z,81.55
2018-06-21T05:38:23.865Z,81.93
2018-06-21T05:39:33.602Z,81.55
2018-06-21T05:40:43.115Z,82.6
2018-06-21T05:41:53.121Z,82.31
2018-06-21T05:43:02.859Z,81.55
2018-06-21T05:44:12.861Z,81.84
2018-06-21T05:45:22.974Z,81.84
2018-06-21T05:46:32.984Z,82.31
2018-06-21T05:47:42.995Z,82.56
2018-06-21T05:48:52.731Z,82.65
2018-06-21T05:50:02.208Z,82.69
2018-06-21T05:51:11.780Z,82.69
2018-06-21T05:52:21.523Z,82.37
2018-06-21T05:53:31.270Z,82.89
2018-06-21T05:54:40.747Z,83.32
2018-06-21T05:55:50.755Z,83.03
2018-06-21T05:57:00.768Z,83.22
2018-06-21T05:58:10.513Z,83.32
2018-06-21T05:59:20.525Z,81.98
2018-06-21T06:00:30.261Z,83.22
2018-06-21T06:01:40.274Z,82.56
2018-06-21T06:02:50.282Z,82.93
2018-06-21T06:04:00.029Z,82.84
2018-06-21T06:05:09.524Z,81.7
2018-06-21T06:06:19.739Z,82.37
2018-06-21T06:07:29.502Z,82.08
2018-06-21T06:08:39.345Z,82.56
2018-06-21T06:09:49.030Z,82.75
2018-06-21T06:10:58.781Z,83.22
2018-06-21T06:12:08.804Z,83.32
2018-06-21T06:13:18.809Z,83.41
2018-06-21T06:14:28.547Z,82.93
2018-06-21T06:15:38.303Z,82.93
2018-06-21T06:16:48.312Z,83.28
2018-06-21T06:17:57.784Z,83.94
2018-06-21T06:19:07.790Z,84.23
2018-06-21T06:20:17.532Z,83.41
2018-06-21T06:21:27.647Z,83.94
2018-06-21T06:22:37.391Z,83.89
2018-06-21T06:23:47.132Z,85.08
2018-06-21T06:24:56.881Z,84.33
2018-06-21T06:26:06.359Z,83.94
2018-06-21T06:27:16.367Z,84.52
2018-06-21T06:28:26.103Z,83.94
2018-06-21T06:29:35.633Z,84.42
2018-06-21T06:30:45.646Z,84.23
2018-06-21T06:31:55.119Z,83.94
2018-06-21T06:33:04.856Z,84.23
2018-06-21T06:34:14.597Z,84.33
2018-06-21T06:35:24.614Z,84.89
2018-06-21T06:36:34.617Z,84.99
2018-06-21T06:37:44.358Z,85.37
2018-06-21T06:38:54.101Z,86.22
2018-06-21T06:40:04.111Z,84.99
2018-06-21T06:41:14.114Z,85.75
2018-06-21T06:42:23.859Z,85.85
2018-06-21T06:43:33.608Z,86.04
2018-06-21T06:44:43.395Z,85.94
2018-06-21T06:45:53.137Z,86.22
2018-06-21T06:47:02.876Z,86.51
2018-06-21T06:48:12.616Z,86.51
2018-06-21T06:49:22.640Z,87.18
2018-06-21T06:50:32.654Z,86.99
2018-06-21T06:51:42.129Z,87.18
2018-06-21T06:52:51.602Z,87.56
2018-06-21T06:54:01.611Z,88.13
2018-06-21T06:55:11.617Z,87.18
2018-06-21T06:56:21.358Z,88.23
2018-06-21T06:57:30.831Z,87.75
2018-06-21T06:58:40.578Z,88.23
2018-06-21T06:59:50.637Z,87.94
2018-06-21T07:01:00.638Z,87.94
2018-06-21T07:02:10.384Z,89.18
2018-06-21T07:03:20.130Z,88.99
2018-06-21T07:04:29.869Z,90.42
2018-06-21T07:05:39.888Z,89.23
2018-06-21T07:06:49.896Z,88.75
2018-06-21T07:07:59.924Z,89.37
2018-06-21T07:09:09.788Z,89.27
2018-06-21T07:10:19.799Z,89.56
2018-06-21T07:11:29.860Z,89.84
2018-06-21T07:12:39.614Z,89.32
2018-06-21T07:13:49.619Z,89.8
2018-06-21T07:14:59.403Z,90.56
2018-06-21T07:16:09.413Z,90.51
2018-06-21T07:17:18.621Z,90.56
2018-06-21T07:18:28.089Z,92.08
2018-06-21T07:19:37.565Z,91.32
2018-06-21T07:20:47.302Z,91.13
2018-06-21T07:21:56.781Z,91.42
2018-06-21T07:23:06.530Z,90.66
2018-06-21T07:24:16.263Z,91.42
2018-06-21T07:25:26.266Z,91.46
2018-06-21T07:26:36.273Z,91.8
2018-06-21T07:27:46.280Z,90.94
2018-06-21T07:28:55.756Z,91.65
2018-06-21T07:30:05.497Z,92.03
2018-06-21T07:31:15.238Z,91.42
2018-06-21T07:32:24.981Z,92.22
2018-06-21T07:33:35.079Z,91.08
2018-06-21T07:34:44.885Z,90.51
2018-06-21T07:35:54.897Z,91.37
2018-06-21T07:37:04.376Z,91.84
2018-06-21T07:38:14.404Z,92.32
2018-06-21T07:39:24.145Z,91.37
2018-06-21T07:40:34.151Z,90.89
2018-06-21T07:41:44.172Z,92.13
2018-06-21T07:42:54.247Z,92.13
2018-06-21T07:44:04.021Z,92.03
2018-06-21T07:45:13.500Z,92.13
2018-06-21T07:46:23.256Z,91.37
2018-06-21T07:47:32.468Z,92.6
2018-06-21T07:48:41.415Z,92.51
2018-06-21T07:49:51.433Z,93.37
2018-06-21T07:51:01.169Z,92.03
2018-06-21T07:52:11.194Z,92.6
2018-06-21T07:53:20.964Z,93.08
2018-06-21T07:54:30.717Z,92.79
2018-06-21T07:55:40.465Z,92.6
2018-06-21T07:56:50.491Z,91.94
2018-06-21T07:58:00.541Z,91.65
2018-06-21T07:59:10.407Z,91.94
2018-06-21T08:00:20.258Z,92.13
2018-06-21T08:01:30.277Z,91.08
2018-06-21T08:02:40.055Z,92.03
2018-06-21T08:03:49.803Z,91.84
2018-06-21T08:04:59.856Z,93.46
2018-06-21T08:06:09.815Z,93.27
2018-06-21T08:07:19.840Z,92.7
2018-06-21T08:08:29.608Z,93.27
2018-06-21T08:09:39.353Z,92.6
2018-06-21T08:10:49.363Z,93.84
2018-06-21T08:11:59.157Z,92.89
2018-06-21T08:13:08.901Z,93.08
2018-06-21T08:14:18.922Z,92.89
2018-06-21T08:15:28.961Z,92.89
2018-06-21T08:16:38.180Z,93.65
2018-06-21T08:17:48.182Z,95.36
2018-06-21T08:18:58.190Z,95.75
2018-06-21T08:20:08.208Z,95.84
2018-06-21T08:21:18.346Z,96.03
2018-06-21T08:22:28.358Z,96.79
2018-06-21T08:23:38.095Z,96.7
2018-06-21T08:24:48.098Z,96.7
2018-06-21T08:25:57.577Z,96.03
2018-06-21T08:27:07.052Z,99.02
2018-06-21T08:28:16.811Z,98.13
2018-06-21T08:29:26.552Z,97.36
2018-06-21T08:30:36.032Z,97.36
2018-06-21T08:31:45.245Z,98.13
2018-06-21T08:32:55.250Z,96.89
2018-06-21T08:34:04.454Z,96.7
2018-06-21T08:35:13.924Z,97.65
2018-06-21T08:36:23.928Z,96.7
2018-06-21T08:37:33.402Z,97.65
2018-06-21T08:38:43.452Z,97.55
2018-06-21T08:39:53.730Z,98.22
2018-06-21T08:41:03.475Z,98.74
2018-06-21T08:42:12.949Z,99.88
2018-06-21T08:43:22.966Z,99.93
2018-06-21T08:44:32.972Z,99.6
2018-06-21T08:45:42.839Z,98.83
2018-06-21T08:46:52.773Z,99.99
2018-06-21T08:48:02.787Z,99.99
2018-06-21T08:49:12.527Z,99.99
2018-06-21T08:50:22.268Z,99.99
2018-06-21T08:51:32.277Z,99.99
2018-06-21T08:52:42.285Z,99.99
2018-06-21T08:53:52.298Z,99.99
2018-06-21T08:55:02.303Z,99.99
2018-06-21T08:56:11.513Z,99.99
2018-06-21T08:57:21.249Z,99.99
2018-06-21T08:58:30.606Z,99.99
2018-06-21T08:59:40.160Z,99.99
2018-06-21T09:00:50.167Z,99.99
2018-06-21T09:01:59.911Z,99.99
2018-06-21T09:03:09.650Z,99.99
2018-06-21T09:04:19.392Z,99.99
2018-06-21T09:05:29.410Z,99.99
2018-06-21T09:06:39.423Z,99.99
2018-06-21T09:07:49.160Z,99.99
2018-06-21T09:08:59.172Z,99.99
2018-06-21T09:10:08.918Z,99.99
2018-06-21T09:11:18.666Z,99.99
2018-06-21T09:12:28.460Z,99.99
2018-06-21T09:13:37.933Z,99.99
2018-06-21T09:14:48.087Z,99.99
2018-06-21T09:15:58.099Z,99.69
2018-06-21T09:17:07.615Z,97.03
2018-06-21T09:18:17.090Z,95.7
2018-06-21T09:19:26.831Z,95.12
2018-06-21T09:20:36.305Z,95.41
2018-06-21T09:21:45.781Z,95.12
2018-06-21T09:22:55.789Z,93.13
2018-06-21T09:24:05.529Z,93.98
2018-06-21T09:25:15.268Z,93.6
2018-06-21T09:26:25.278Z,93.51
2018-06-21T09:27:35.286Z,93.41
2018-06-21T09:28:45.296Z,93.93
2018-06-21T09:29:55.044Z,92.89
2018-06-21T09:31:04.783Z,93.08
2018-06-21T09:32:14.522Z,90.56
2018-06-21T09:33:24.421Z,91.6
2018-06-21T09:34:34.173Z,90.56
2018-06-21T09:35:43.915Z,91.51
2018-06-21T09:36:53.920Z,92.7
2018-06-21T09:38:03.663Z,91.41
2018-06-21T09:39:13.407Z,93.51
2018-06-21T09:40:23.421Z,91.99
2018-06-21T09:41:32.893Z,93.13
2018-06-21T09:42:42.653Z,92.74
2018-06-21T09:44:06.484Z,91.51
2018-06-21T09:45:15.961Z,91.6
2018-06-21T09:46:36.720Z,91.89
2018-06-21T09:47:46.468Z,91.79
2018-06-21T09:48:56.204Z,93.13
2018-06-21T09:50:06.259Z,92.36
2018-06-21T09:51:15.466Z,94.46
2018-06-21T09:52:25.238Z,94.56
2018-06-21T09:53:35.166Z,93.89
2018-06-21T09:54:45.169Z,95.84
2018-06-21T09:55:54.923Z,97.74
2018-06-21T09:57:04.662Z,97.65
2018-06-21T09:58:14.151Z,97.65
2018-06-21T09:59:24.156Z,98.5
2018-06-21T10:00:34.159Z,98.98
2018-06-21T10:01:44.166Z,97.93
2018-06-21T10:02:54.233Z,98.98
2018-06-21T10:04:04.242Z,98.13
2018-06-21T10:05:13.721Z,98.5
2018-06-21T10:06:23.459Z,98.5
2018-06-21T10:07:33.205Z,99.36
2018-06-21T10:08:43.226Z,99.99
2018-06-21T10:09:53.242Z,98.55
2018-06-21T10:11:02.986Z,97.79
2018-06-21T10:12:12.728Z,97.89
2018-06-21T10:13:24.201Z,97.08
2018-06-21T10:14:33.941Z,97.79
2018-06-21T10:15:43.465Z,97.89
2018-06-21T10:16:53.752Z,97.51
2018-06-21T10:18:03.754Z,98.18
2018-06-21T10:19:13.491Z,95.7
2018-06-21T10:20:23.573Z,96.12
2018-06-21T10:21:34.033Z,95.36
2018-06-21T10:22:44.036Z,96.22
2018-06-21T10:23:53.782Z,97.17
2018-06-21T10:25:03.524Z,96.31
2018-06-21T10:26:13.536Z,97.93
2018-06-21T10:27:23.286Z,97.74
2018-06-21T10:28:32.495Z,97.84
2018-06-21T10:29:42.249Z,99.99
2018-06-21T10:30:52.044Z,99.99
2018-06-21T10:32:01.787Z,99.99
2018-06-21T10:33:11.530Z,99.99
2018-06-21T10:34:21.005Z,99.99
2018-06-21T10:35:31.026Z,99.99
2018-06-21T10:36:41.039Z,99.99
2018-06-21T10:37:51.053Z,99.99
2018-06-21T10:39:01.063Z,99.99
2018-06-21T10:40:10.541Z,99.99
2018-06-21T10:41:20.549Z,99.99
2018-06-21T10:42:30.065Z,99.99
2018-06-21T10:43:40.235Z,99.99
2018-06-21T10:44:50.257Z,99.03
2018-06-21T10:46:00.263Z,99.99
2018-06-21T10:47:09.742Z,99.41
2018-06-21T10:48:19.479Z,99.99
2018-06-21T10:49:28.688Z,99.99
2018-06-21T10:50:38.701Z,99.99
2018-06-21T10:51:48.443Z,99.99
2018-06-21T10:52:58.458Z,99.99
2018-06-21T10:54:07.931Z,99.89
2018-06-21T10:55:17.406Z,97.31
2018-06-21T10:56:27.143Z,98.46
2018-06-21T10:57:37.149Z,98.74
2018-06-21T10:58:47.155Z,97.89
2018-06-21T10:59:56.626Z,97.89
2018-06-21T11:01:06.105Z,98.18
2018-06-21T11:02:15.581Z,99.03
2018-06-21T11:03:25.172Z,96.17
2018-06-21T11:04:34.911Z,97.31
2018-06-21T11:05:44.974Z,96.75
2018-06-21T11:06:54.212Z,99.89
2018-06-21T11:08:03.959Z,99.99
2018-06-21T11:09:13.430Z,99.99
2018-06-21T11:10:22.904Z,98.27
2018-06-21T11:11:32.794Z,97.41
2018-06-21T11:12:42.548Z,97.7
2018-06-21T11:13:52.604Z,98.13
2018-06-21T11:15:02.615Z,97.46
2018-06-21T11:16:12.626Z,97.36
2018-06-21T11:17:22.382Z,96.51
2018-06-21T11:18:32.127Z,94.79
2018-06-21T11:19:42.142Z,95.08
2018-06-21T11:20:51.621Z,95.94
2018-06-21T11:22:01.640Z,97.08
2018-06-21T11:23:11.659Z,93.93
2018-06-21T11:24:21.682Z,94.79
2018-06-21T11:25:31.164Z,96.12
2018-06-21T11:26:40.917Z,96.32
2018-06-21T11:27:51.042Z,95.22
2018-06-21T11:29:00.958Z,97.22
2018-06-21T11:30:10.967Z,97.03
2018-06-21T11:31:20.715Z,96.8
2018-06-21T11:32:30.727Z,91.27
2018-06-21T11:33:40.737Z,91.55
2018-06-21T11:34:50.481Z,90.17
2018-06-21T11:36:00.502Z,89.45
2018-06-21T11:37:10.263Z,91.31
2018-06-21T11:38:19.736Z,91.6
2018-06-21T11:39:29.750Z,90.73
2018-06-21T11:40:39.779Z,87.11
2018-06-21T11:41:49.791Z,87.68
2018-06-21T11:42:59.531Z,86.54
2018-06-21T11:44:09.010Z,85.83
2018-06-21T11:45:18.749Z,89.74
2018-06-21T11:46:28.506Z,89.88
2018-06-21T11:47:38.257Z,87.97
2018-06-21T11:48:48.266Z,88.3
2018-06-21T11:49:58.279Z,88.4
2018-06-21T11:51:07.761Z,89.54
2018-06-21T11:52:17.624Z,85.86
2018-06-21T11:53:28.011Z,85.1
2018-06-21T11:54:37.756Z,85.25
2018-06-21T11:55:47.775Z,85.72
2018-06-21T11:56:56.994Z,84.29
2018-06-21T11:58:06.471Z,84.96
2018-06-21T11:59:15.690Z,83.43
2018-06-21T12:00:25.168Z,85.01
2018-06-21T12:01:35.187Z,86.59
2018-06-21T12:02:44.956Z,86.11
2018-06-21T12:03:54.971Z,87.83
2018-06-21T12:05:04.457Z,88.02
2018-06-21T12:06:14.232Z,86.25
2018-06-21T12:07:24.246Z,88.54
2018-06-21T12:08:34.262Z,86.35
2018-06-21T12:09:44.405Z,84.53
2018-06-21T12:10:54.413Z,85.21
2018-06-21T12:12:04.242Z,90.17
2018-06-21T12:13:13.721Z,87.35
2018-06-21T12:14:23.742Z,84
2018-06-21T12:15:33.266Z,82.76
2018-06-21T12:16:43.017Z,86.39
2018-06-21T12:17:53.046Z,85.67
2018-06-21T12:19:03.057Z,79.36
2018-06-21T12:20:13.073Z,80.55
2018-06-21T12:21:23.091Z,78.93
2018-06-21T12:22:33.105Z,79.79
2018-06-21T12:23:42.854Z,79.6
2018-06-21T12:24:52.878Z,78.45
2018-06-21T12:26:02.951Z,83.23
2018-06-21T12:27:12.537Z,80.07
2018-06-21T12:28:22.560Z,81.6
2018-06-21T12:29:32.329Z,79.54
2018-06-21T12:30:42.348Z,77.63
2018-06-21T12:31:52.369Z,78.05
2018-06-21T12:33:02.013Z,78.38
2018-06-21T12:34:11.763Z,70.95
2018-06-21T12:35:21.774Z,73.15
2018-06-21T12:36:31.534Z,70.41
2018-06-21T12:37:41.287Z,72.45
2018-06-21T12:38:50.772Z,68.95
2018-06-21T12:40:00.797Z,70.19
2018-06-21T12:41:10.285Z,70.86
2018-06-21T12:42:20.050Z,65.43
2018-06-21T12:43:30.123Z,66.86
2018-06-21T12:44:40.233Z,68.59
2018-06-21T12:45:50.272Z,69.03
2018-06-21T12:46:59.773Z,67.72
2018-06-21T12:48:09.804Z,69.29
2018-06-21T12:49:19.561Z,64.43
2018-06-21T12:50:29.399Z,67.66
2018-06-21T12:51:39.417Z,66.38
2018-06-21T12:52:48.912Z,65.42
2018-06-21T12:53:58.659Z,67.15
2018-06-21T12:55:07.610Z,66.77
2018-06-21T12:56:17.368Z,68.08
2018-06-21T12:57:27.391Z,65.52
2018-06-21T12:58:37.415Z,65.36
2018-06-21T12:59:47.447Z,61.65
2018-06-21T13:00:56.943Z,63.19
2018-06-21T13:02:06.966Z,63.79
2018-06-21T13:03:16.997Z,60.94
2018-06-21T13:04:27.018Z,58.76
2018-06-21T13:05:37.057Z,56.07
2018-06-21T13:06:47.083Z,56.26
2018-06-21T13:07:57.104Z,57.68
2018-06-21T13:09:06.863Z,53.06
2018-06-21T13:10:16.887Z,53.06
2018-06-21T13:11:26.648Z,57.77
2018-06-21T13:12:36.142Z,58.7
2018-06-21T13:13:45.893Z,56.21
2018-06-21T13:14:55.917Z,54.67
2018-06-21T13:16:05.676Z,56.71
2018-06-21T13:17:15.436Z,56.77
2018-06-21T13:18:25.190Z,55.45
2018-06-21T13:19:35.210Z,55.79
2018-06-21T13:20:44.738Z,50.84
2018-06-21T13:21:54.632Z,49.6
2018-06-21T13:23:04.134Z,51.34
2018-06-21T13:24:13.890Z,47.91
2018-06-21T13:25:23.935Z,43.01
2018-06-21T13:26:33.956Z,43.28
2018-06-21T13:27:44.050Z,43.74
2018-06-21T13:28:54.379Z,44.68
2018-06-21T13:30:04.435Z,44.97
2018-06-21T13:31:14.207Z,48.9
2018-06-21T13:32:23.962Z,46.81
2018-06-21T13:33:33.747Z,44.8
2018-06-21T13:34:43.253Z,45.65
2018-06-21T13:35:52.751Z,44.56
2018-06-21T13:37:02.865Z,44.01
2018-06-21T13:38:13.019Z,46.44
2018-06-21T13:39:22.781Z,45.62
2018-06-21T13:40:32.579Z,44.4
2018-06-21T13:41:42.621Z,39.41
2018-06-21T13:42:52.126Z,40.86
2018-06-21T13:44:01.883Z,40.98
2018-06-21T13:45:11.381Z,43.08
2018-06-21T13:46:21.412Z,41.94
2018-06-21T13:47:31.176Z,47.02
2018-06-21T13:48:41.207Z,42.41
2018-06-21T13:49:51.106Z,47.48
2018-06-21T13:51:00.751Z,47.43
2018-06-21T13:52:09.985Z,43.4
2018-06-21T13:53:20.061Z,43.82
2018-06-21T13:54:30.106Z,44.54
2018-06-21T13:55:40.025Z,41.95
2018-06-21T13:56:49.779Z,42.94
2018-06-21T13:57:59.803Z,39.2
2018-06-21T13:59:09.958Z,37.4
2018-06-21T14:00:19.926Z,39.26
2018-06-21T14:01:29.947Z,41.4
2018-06-21T14:02:39.981Z,41.38
2018-06-21T14:03:49.470Z,43.98
2018-06-21T14:04:59.508Z,43.46
2018-06-21T14:06:09.691Z,45.25
2018-06-21T14:07:19.515Z,44.86
2018-06-21T14:08:29.843Z,45.7
2018-06-21T14:09:41.201Z,45.32
2018-06-21T14:10:50.968Z,48.79
2018-06-21T14:12:01.045Z,52
2018-06-21T14:13:10.815Z,53.68
2018-06-21T14:14:20.857Z,53.42
2018-06-21T14:15:30.879Z,54.25
2018-06-21T14:16:40.635Z,58.33
2018-06-21T14:17:50.396Z,60.5
2018-06-21T14:19:00.445Z,62.62
2018-06-21T14:20:10.249Z,61.11
2018-06-21T14:21:20.011Z,58.52
2018-06-21T14:22:30.060Z,59.83
2018-06-21T14:23:39.601Z,59.16
2018-06-21T14:24:49.848Z,60.03
2018-06-21T14:25:59.985Z,59.61
2018-06-21T14:27:10.104Z,59.55
2018-06-21T14:28:20.123Z,59.23
2018-06-21T14:29:30.144Z,60.57
2018-06-21T14:30:40.161Z,62.17
2018-06-21T14:31:49.911Z,62.17
2018-06-21T14:32:59.395Z,62.17
2018-06-21T14:34:09.197Z,60.96
2018-06-21T14:35:19.073Z,60.86
2018-06-21T14:36:28.966Z,58.56
2018-06-21T14:37:38.450Z,59.04
2018-06-21T14:38:48.198Z,59.42
2018-06-21T14:39:58.216Z,58.46
2018-06-21T14:41:07.960Z,59.52
2018-06-21T14:42:18.031Z,59.61
2018-06-21T14:43:28.202Z,59.23
2018-06-21T14:44:37.687Z,59.42
2018-06-21T14:45:47.714Z,59.52
2018-06-21T14:46:59.199Z,58.49
2018-06-21T14:48:08.902Z,58.46
2018-06-21T14:49:19.373Z,59.13
2018-06-21T14:50:29.122Z,58.17
2018-06-21T14:51:38.600Z,59.52
2018-06-21T14:52:48.079Z,61.88
2018-06-21T14:53:57.563Z,62.01
2018-06-21T14:55:07.313Z,60
2018-06-21T14:56:17.327Z,57.79
2018-06-21T14:57:27.346Z,59.11
2018-06-21T14:58:37.363Z,61.85
2018-06-21T14:59:47.383Z,60.99
2018-06-21T15:00:56.600Z,57.92
2018-06-21T15:02:06.618Z,56.42
2018-06-21T15:03:16.101Z,56.09
2018-06-21T15:04:25.865Z,56.48
2018-06-21T15:05:35.888Z,53.72